createdAt,value
2019-04-24T00:01:20.699Z,3.80
2019-04-24T00:04:03.763Z,4.30
2019-04-24T00:06:45.969Z,3.87
2019-04-24T00:09:12.697Z,4.13
2019-04-24T00:12:24.484Z,4.40
2019-04-24T00:17:24.734Z,4.43
2019-04-24T00:20:24.320Z,4.00
2019-04-24T00:27:30.981Z,4.70
2019-04-24T00:30:01.904Z,5.00
2019-04-24T00:32:41.021Z,4.33
2019-04-24T00:37:54.312Z,5.07
2019-04-24T00:40:08.247Z,4.60
2019-04-24T00:43:14.527Z,4.80
2019-04-24T00:45:29.316Z,4.20
2019-04-24T00:47:58.932Z,4.40
2019-04-24T00:50:23.602Z,4.30
2019-04-24T00:55:24.761Z,4.87
2019-04-24T00:58:05.441Z,3.73
2019-04-24T01:00:41.846Z,4.10
2019-04-24T01:08:47.088Z,4.60
2019-04-24T01:11:24.829Z,3.90
2019-04-24T01:14:09.036Z,5.03
2019-04-24T01:19:08.229Z,4.93
2019-04-24T01:24:12.306Z,4.30
2019-04-24T01:26:48.242Z,4.37
2019-04-24T01:29:19.023Z,4.57
2019-04-24T01:31:55.164Z,5.00
2019-04-24T01:38:05.216Z,4.47
2019-04-24T01:40:27.299Z,5.30
2019-04-24T01:43:05.370Z,4.97
2019-04-24T01:48:15.925Z,5.33
2019-04-24T01:53:18.342Z,4.93
2019-04-24T01:55:27.478Z,5.07
2019-04-24T01:58:14.154Z,4.70
2019-04-24T02:01:08.674Z,5.47
2019-04-24T02:03:26.432Z,5.50
2019-04-24T02:06:03.760Z,5.20
2019-04-24T02:09:06.829Z,4.63
2019-04-24T02:14:20.025Z,5.03
2019-04-24T02:16:37.240Z,4.63
2019-04-24T02:19:15.469Z,5.20
2019-04-24T02:21:46.821Z,5.93
2019-04-24T02:24:21.837Z,5.40
2019-04-24T02:27:02.918Z,5.17
2019-04-24T02:32:02.323Z,5.53
2019-04-24T02:34:50.944Z,5.13
2019-04-24T02:37:36.617Z,5.10
2019-04-24T02:40:13.104Z,5.40
2019-04-24T02:50:57.893Z,4.83
2019-04-24T02:53:31.366Z,5.30
2019-04-24T02:56:09.851Z,4.77
2019-04-24T03:01:06.691Z,5.20
2019-04-24T03:03:43.700Z,5.33
2019-04-24T03:11:19.317Z,5.10
2019-04-24T03:14:18.094Z,5.50
2019-04-24T03:19:44.091Z,5.87
2019-04-24T03:22:13.711Z,5.50
2019-04-24T03:38:09.383Z,4.83
2019-04-24T03:40:55.319Z,4.90
2019-04-24T03:51:24.014Z,5.10
2019-04-24T04:02:05.962Z,5.30
2019-04-24T04:04:41.782Z,5.00
2019-04-24T04:07:04.989Z,5.03
2019-04-24T04:09:50.893Z,4.67
2019-04-24T04:15:04.447Z,4.90
2019-04-24T04:17:55.647Z,5.60
2019-04-24T04:20:00.946Z,5.47
2019-04-24T04:25:38.586Z,5.10
2019-04-24T04:28:02.265Z,5.07
2019-04-24T04:31:14.594Z,4.47
2019-04-24T04:38:46.078Z,6.40
2019-04-24T04:41:37.871Z,4.97
2019-04-24T04:50:09.669Z,4.87
2019-04-24T05:03:39.854Z,5.20
2019-04-24T05:11:44.526Z,4.50
2019-04-24T05:16:53.620Z,5.27
2019-04-24T05:24:21.154Z,5.33
2019-04-24T05:29:39.459Z,5.37
2019-04-24T05:34:47.643Z,5.47
2019-04-24T05:45:31.714Z,5.60
2019-04-24T05:47:54.221Z,5.03
2019-04-24T05:50:56.447Z,5.80
2019-04-24T05:58:19.679Z,4.10
2019-04-24T06:01:23.818Z,4.23
2019-04-24T06:09:55.748Z,5.70
2019-04-24T06:12:16.476Z,5.20
2019-04-24T06:15:09.878Z,5.03
2019-04-24T06:20:45.493Z,5.73
2019-04-24T06:23:00.286Z,6.53
2019-04-24T06:25:47.410Z,5.57
2019-04-24T06:30:48.744Z,5.40
2019-04-24T06:32:58.758Z,5.00
2019-04-24T06:38:25.487Z,5.50
2019-04-24T06:41:14.071Z,4.80
2019-04-24T06:46:31.623Z,4.57
2019-04-24T06:51:28.675Z,5.10
2019-04-24T06:54:11.401Z,4.67
2019-04-24T06:59:28.917Z,5.10
2019-04-24T07:01:58.399Z,4.50
2019-04-24T07:07:29.315Z,5.00
2019-04-24T07:10:41.183Z,4.50
2019-04-24T07:13:00.834Z,3.70
2019-04-24T07:21:03.318Z,2.60
2019-04-24T07:34:32.810Z,2.60
2019-04-24T07:37:21.328Z,2.77
2019-04-24T07:42:08.332Z,3.37
2019-04-24T07:44:49.257Z,2.67
2019-04-24T07:49:53.329Z,3.07
2019-04-24T07:52:57.608Z,2.07
2019-04-24T07:57:44.781Z,2.20
2019-04-24T08:07:58.254Z,2.70
2019-04-24T08:13:24.182Z,3.00
2019-04-24T08:15:59.656Z,2.87
2019-04-24T08:18:28.231Z,2.77
2019-04-24T08:26:04.466Z,2.93
2019-04-24T08:28:54.722Z,2.67
2019-04-24T08:36:53.012Z,2.50
2019-04-24T08:39:44.134Z,2.17
2019-04-24T08:42:30.128Z,3.87
2019-04-24T08:50:33.912Z,3.40
2019-04-24T09:00:55.074Z,3.40
2019-04-24T09:03:44.680Z,3.23
2019-04-24T09:08:53.951Z,3.10
2019-04-24T09:11:39.967Z,3.53
2019-04-24T09:14:15.502Z,4.37
2019-04-24T09:19:33.150Z,3.93
2019-04-24T09:24:49.957Z,3.70
2019-04-24T09:35:15.282Z,2.87
2019-04-24T09:38:02.301Z,3.50
2019-04-24T09:46:02.474Z,4.43
2019-04-24T09:48:50.718Z,3.63
2019-04-24T09:53:59.981Z,3.47
2019-04-24T09:56:50.030Z,3.93
2019-04-24T09:59:24.920Z,3.50
2019-04-24T10:02:12.378Z,4.00
2019-04-24T10:07:32.095Z,3.77
2019-04-24T10:10:02.921Z,4.07
2019-04-24T10:15:08.996Z,4.00
2019-04-24T10:17:49.290Z,3.87
2019-04-24T10:23:00.200Z,4.40
2019-04-24T10:25:47.141Z,4.47
2019-04-24T10:28:31.291Z,3.60
2019-04-24T10:31:13.534Z,4.20
2019-04-24T10:37:01.450Z,4.10
2019-04-24T10:40:09.739Z,4.47
2019-04-24T10:42:46.226Z,3.67
2019-04-24T10:48:29.146Z,3.73
2019-04-24T10:51:03.847Z,4.77
2019-04-24T10:58:48.883Z,4.03
2019-04-24T11:02:02.711Z,3.83
2019-04-24T11:04:48.554Z,4.10
2019-04-24T11:07:54.104Z,4.17
2019-04-24T11:27:06.910Z,3.80
2019-04-24T11:29:43.048Z,3.90
2019-04-24T11:32:36.951Z,3.97
2019-04-24T11:38:07.702Z,4.23
2019-04-24T11:43:13.676Z,3.17
2019-04-24T11:46:11.133Z,3.70
2019-04-24T11:49:10.945Z,4.30
2019-04-24T11:51:52.314Z,3.47
2019-04-24T11:54:13.174Z,3.07
2019-04-24T11:57:11.140Z,3.53
2019-04-24T11:59:18.971Z,3.80
2019-04-24T12:08:00.541Z,4.13
2019-04-24T12:10:20.834Z,4.27
2019-04-24T12:13:17.232Z,4.63
2019-04-24T12:18:49.045Z,4.40
2019-04-24T12:21:31.424Z,3.97
2019-04-24T12:24:05.855Z,3.90
2019-04-24T12:26:37.199Z,4.10
2019-04-24T12:29:03.775Z,3.63
2019-04-24T12:34:43.409Z,3.60
2019-04-24T12:39:41.801Z,2.50
2019-04-24T12:42:28.012Z,3.40
2019-04-24T12:49:53.873Z,2.63
2019-04-24T13:01:07.749Z,2.30
2019-04-24T13:04:19.007Z,2.80
2019-04-24T13:06:13.345Z,2.00
2019-04-24T13:11:49.903Z,3.00
2019-04-24T13:14:29.518Z,2.40
2019-04-24T13:17:33.437Z,1.90
2019-04-24T13:21:51.192Z,1.53
2019-04-24T13:24:52.060Z,1.50
2019-04-24T13:27:57.027Z,2.73
2019-04-24T13:30:19.482Z,1.20
2019-04-24T13:33:05.327Z,1.40
2019-04-24T13:40:38.239Z,1.40
2019-04-24T13:45:46.205Z,0.67
2019-04-24T13:55:50.059Z,0.40
2019-04-24T14:04:06.848Z,0.50
2019-04-24T14:06:39.558Z,0.40
2019-04-24T14:09:10.938Z,0.40
2019-04-24T14:12:40.595Z,0.30
2019-04-24T14:14:07.312Z,0.70
2019-04-24T14:22:04.668Z,0.50
2019-04-24T14:37:17.504Z,0.50
2019-04-24T14:39:50.032Z,0.43
2019-04-24T14:42:24.939Z,0.60
2019-04-24T14:45:07.228Z,0.50
2019-04-24T14:52:35.468Z,0.50
2019-04-24T14:55:21.089Z,0.50
2019-04-24T15:00:18.110Z,0.50
2019-04-24T15:02:58.734Z,0.40
2019-04-24T15:05:18.537Z,0.40
2019-04-24T15:07:55.315Z,0.40
2019-04-24T15:18:19.734Z,1.70
2019-04-24T15:21:04.211Z,0.50
2019-04-24T15:23:53.750Z,0.50
2019-04-24T15:28:39.551Z,0.50
2019-04-24T15:31:20.415Z,0.60
2019-04-24T15:38:49.712Z,0.60
2019-04-24T15:41:22.697Z,0.50
2019-04-24T15:43:44.226Z,0.67
2019-04-24T15:46:22.419Z,0.40
2019-04-24T15:48:54.893Z,0.67
2019-04-24T15:51:26.128Z,0.70
2019-04-24T15:53:31.446Z,0.50
2019-04-24T15:56:02.558Z,0.53
2019-04-24T15:58:44.465Z,0.40
2019-04-24T16:01:35.893Z,0.70
2019-04-24T16:04:08.987Z,0.60
2019-04-24T16:06:33.177Z,0.47
2019-04-24T16:09:13.390Z,0.70
2019-04-24T16:11:44.081Z,0.50
2019-04-24T16:14:33.282Z,0.70
2019-04-24T16:17:14.795Z,0.60
2019-04-24T16:22:16.613Z,0.60
2019-04-24T16:27:26.713Z,0.60
2019-04-24T16:29:58.687Z,0.60
2019-04-24T16:35:08.904Z,0.53
2019-04-24T16:37:31.556Z,0.60
2019-04-24T16:43:11.646Z,0.67
2019-04-24T16:45:30.407Z,0.40
2019-04-24T16:55:37.633Z,0.60
2019-04-24T16:58:13.850Z,0.50
2019-04-24T17:01:22.672Z,0.70
2019-04-24T17:03:25.731Z,0.50
2019-04-24T17:06:03.910Z,0.60
2019-04-24T17:08:30.116Z,0.60
2019-04-24T17:11:01.206Z,1.93
2019-04-24T17:16:06.763Z,1.27
2019-04-24T17:18:49.379Z,0.80
2019-04-24T17:21:31.618Z,0.97
2019-04-24T17:26:18.068Z,1.23
2019-04-24T17:31:26.997Z,1.30
2019-04-24T17:34:02.667Z,0.73
2019-04-24T17:36:17.667Z,0.67
2019-04-24T17:38:43.725Z,1.10
2019-04-24T17:41:21.875Z,0.80
2019-04-24T17:44:29.907Z,0.83
2019-04-24T17:46:52.308Z,0.70
2019-04-24T17:49:26.457Z,0.90
2019-04-24T17:51:47.615Z,0.60
2019-04-24T17:58:59.353Z,0.97
2019-04-24T18:01:31.300Z,0.60
2019-04-24T18:04:02.740Z,0.80
2019-04-24T18:06:33.453Z,0.70
2019-04-24T18:09:06.213Z,0.60
2019-04-24T18:11:36.781Z,0.60
2019-04-24T18:14:06.783Z,0.70
2019-04-24T18:16:37.169Z,0.93
2019-04-24T18:19:07.149Z,0.80
2019-04-24T18:21:37.549Z,1.00
2019-04-24T18:24:12.459Z,0.50
2019-04-24T18:26:47.659Z,0.53
2019-04-24T18:29:18.269Z,0.80
2019-04-24T18:31:48.982Z,0.80
2019-04-24T18:34:19.029Z,0.90
2019-04-24T18:36:49.374Z,0.50
2019-04-24T18:39:21.632Z,0.80
2019-04-24T18:41:52.330Z,1.00
2019-04-24T18:44:23.033Z,0.50
2019-04-24T18:46:53.645Z,0.60
2019-04-24T18:49:24.352Z,0.50
2019-04-24T18:51:54.969Z,0.40
2019-04-24T18:54:25.588Z,0.50
2019-04-24T18:56:56.116Z,0.40
2019-04-24T18:59:26.666Z,0.50
2019-04-24T19:01:57.269Z,0.70
2019-04-24T19:04:27.909Z,0.40
2019-04-24T19:06:58.890Z,0.40
2019-04-24T19:09:29.476Z,0.43
2019-04-24T19:12:03.108Z,0.50
2019-04-24T19:14:32.988Z,0.40
2019-04-24T19:17:03.593Z,0.40
2019-04-24T19:19:34.232Z,0.60
2019-04-24T19:22:05.873Z,0.60
2019-04-24T19:24:35.904Z,0.60
2019-04-24T19:27:06.241Z,0.93
2019-04-24T19:29:36.808Z,1.30
2019-04-24T19:32:08.310Z,0.73
2019-04-24T19:34:39.666Z,1.03
2019-04-24T19:37:11.025Z,0.73
2019-04-24T19:39:42.092Z,0.60
2019-04-24T19:42:14.877Z,1.10
2019-04-24T19:44:45.613Z,0.60
2019-04-24T19:47:28.502Z,0.70
2019-04-24T19:49:48.550Z,0.60
2019-04-24T19:52:19.498Z,0.50
2019-04-24T19:54:50.280Z,0.70
2019-04-24T19:57:25.415Z,0.70
2019-04-24T19:59:52.678Z,0.80
2019-04-24T20:02:23.745Z,0.70
2019-04-24T20:04:54.432Z,0.50
2019-04-24T20:07:25.034Z,0.80
2019-04-24T20:10:26.842Z,0.50
2019-04-24T20:12:57.453Z,0.40
2019-04-24T20:15:28.142Z,0.50
2019-04-24T20:17:58.920Z,0.57
2019-04-24T20:20:29.622Z,0.50
2019-04-24T20:22:59.652Z,0.50
2019-04-24T20:25:31.313Z,0.60
2019-04-24T20:28:01.978Z,0.50
2019-04-24T20:30:32.676Z,0.70
2019-04-24T20:33:03.371Z,0.60
2019-04-24T20:35:33.993Z,0.60
2019-04-24T20:38:04.524Z,0.60
2019-04-24T20:40:34.484Z,0.50
2019-04-24T20:43:04.884Z,0.60
2019-04-24T20:45:34.924Z,0.70
2019-04-24T20:48:05.601Z,0.70
2019-04-24T20:50:36.306Z,0.70
2019-04-24T20:53:06.900Z,0.67
2019-04-24T20:55:37.454Z,0.70
2019-04-24T20:58:08.109Z,0.70
2019-04-24T21:00:38.963Z,0.70
2019-04-24T21:03:11.186Z,0.83
2019-04-24T21:06:03.224Z,0.60
2019-04-24T21:09:01.834Z,0.83
2019-04-24T21:11:34.141Z,0.63
2019-04-24T21:14:04.148Z,0.87
2019-04-24T21:16:34.680Z,0.60
2019-04-24T21:19:05.345Z,0.70
2019-04-24T21:21:35.898Z,0.80
2019-04-24T21:24:06.497Z,0.80
2019-04-24T21:26:37.062Z,0.70
2019-04-24T21:29:07.635Z,0.90
2019-04-24T21:31:37.746Z,0.70
2019-04-24T21:34:08.150Z,0.90
2019-04-24T21:36:38.803Z,0.60
2019-04-24T21:39:09.478Z,0.90
2019-04-24T21:41:39.677Z,0.60
2019-04-24T21:44:10.021Z,0.60
2019-04-24T21:46:42.291Z,0.50
2019-04-24T21:49:12.804Z,0.70
2019-04-24T21:51:42.901Z,0.80
2019-04-24T21:54:15.227Z,0.80
2019-04-24T21:56:45.664Z,0.70
2019-04-24T21:59:16.253Z,0.90
2019-04-24T22:02:11.224Z,0.80
2019-04-24T22:04:51.531Z,0.90
2019-04-24T22:07:34.937Z,1.00
2019-04-24T22:10:03.572Z,1.03
2019-04-24T22:12:35.893Z,0.83
2019-04-24T22:15:08.933Z,0.80
2019-04-24T22:17:42.950Z,0.87
2019-04-24T22:20:35.609Z,0.80
2019-04-24T22:23:25.981Z,0.80
2019-04-24T22:25:58.085Z,0.70
2019-04-24T22:28:28.696Z,0.50
2019-04-24T22:31:17.845Z,0.77
2019-04-24T22:33:56.181Z,0.63
2019-04-24T22:36:27.456Z,0.93
2019-04-24T22:39:09.221Z,0.70
2019-04-24T22:41:41.337Z,0.70
2019-04-24T22:44:12.054Z,0.90
2019-04-24T22:46:42.726Z,0.70
2019-04-24T22:49:13.345Z,0.70
2019-04-24T22:51:43.943Z,0.87
2019-04-24T22:54:14.553Z,0.70
2019-04-24T22:56:55.315Z,0.70
2019-04-24T22:59:17.383Z,0.70
2019-04-24T23:01:55.107Z,0.73
2019-04-24T23:04:21.783Z,0.70
2019-04-24T23:06:52.500Z,0.63
2019-04-24T23:09:32.536Z,0.60
2019-04-24T23:12:03.370Z,0.80
2019-04-24T23:14:34.923Z,0.70
2019-04-24T23:17:06.110Z,0.60
2019-04-24T23:19:38.403Z,0.70
2019-04-24T23:22:29.180Z,0.70
2019-04-24T23:25:18.756Z,0.60
2019-04-24T23:28:13.952Z,0.70
2019-04-24T23:30:58.064Z,0.53
2019-04-24T23:33:34.827Z,0.80
2019-04-24T23:36:06.068Z,0.70
2019-04-24T23:38:36.674Z,0.70
2019-04-24T23:41:10.912Z,1.00
2019-04-24T23:43:40.499Z,0.70
2019-04-24T23:46:11.847Z,0.70
2019-04-24T23:48:44.254Z,0.77
2019-04-24T23:51:14.804Z,0.80
2019-04-24T23:53:45.821Z,0.70
2019-04-24T23:56:16.396Z,0.60
2019-04-24T23:58:47.005Z,1.43
